createdAt,value
2023-05-15T00:01:49.253Z,97384.97
2023-05-15T00:04:16.346Z,97384.44
2023-05-15T00:06:42.883Z,97375.34
2023-05-15T00:09:09.367Z,97381.97
2023-05-15T00:11:35.828Z,97374.19
2023-05-15T00:14:02.286Z,97379.72
2023-05-15T00:16:28.898Z,97377.66
2023-05-15T00:18:55.498Z,97387.28
2023-05-15T00:21:21.953Z,97375.94
2023-05-15T00:23:48.534Z,97369.88
2023-05-15T00:26:15.776Z,97367.09
2023-05-15T00:28:42.454Z,97366.56
2023-05-15T00:31:09.051Z,97365.69
2023-05-15T00:33:35.549Z,97367.25
2023-05-15T00:36:02.060Z,97366.97
2023-05-15T00:38:28.932Z,97372.88
2023-05-15T00:40:55.478Z,97370.28
2023-05-15T00:43:22.034Z,97364.41
2023-05-15T00:45:48.616Z,97369.09
2023-05-15T00:48:15.102Z,97369.16
2023-05-15T00:50:41.714Z,97370.03
2023-05-15T00:53:08.207Z,97367.78
2023-05-15T00:55:34.650Z,97370.75
2023-05-15T00:58:01.340Z,97369.38
2023-05-15T01:00:27.961Z,97368.38
2023-05-15T01:02:54.602Z,97366.72
2023-05-15T01:05:21.100Z,97363.66
2023-05-15T01:07:57.882Z,97367.19
2023-05-15T01:10:24.371Z,97357.03
2023-05-15T01:12:51.401Z,97356.00
2023-05-15T01:15:18.177Z,97361.19
2023-05-15T01:17:44.825Z,97368.09
2023-05-15T01:20:12.118Z,97365.31
2023-05-15T01:22:48.381Z,97361.59
2023-05-15T01:25:32.896Z,97364.97
2023-05-15T01:27:59.448Z,97360.59
2023-05-15T01:30:28.716Z,97353.16
2023-05-15T01:33:17.224Z,97357.16
2023-05-15T01:35:49.812Z,97352.13
2023-05-15T01:38:24.264Z,97356.00
2023-05-15T01:40:53.981Z,97355.06
2023-05-15T01:43:22.674Z,97354.19
2023-05-15T01:45:49.220Z,97353.97
2023-05-15T01:48:15.840Z,97357.94
2023-05-15T01:50:42.309Z,97365.09
2023-05-15T01:53:09.023Z,97353.28
2023-05-15T01:55:35.475Z,97352.91
2023-05-15T01:58:02.240Z,97351.16
2023-05-15T02:00:29.268Z,97352.31
2023-05-15T02:02:56.372Z,97350.56
2023-05-15T02:05:23.246Z,97348.28
2023-05-15T02:07:49.962Z,97348.13
2023-05-15T02:10:16.717Z,97356.44
2023-05-15T02:12:43.213Z,97358.47
2023-05-15T02:15:10.294Z,97352.78
2023-05-15T02:17:37.126Z,97358.09
2023-05-15T02:20:05.997Z,97355.59
2023-05-15T02:22:32.496Z,97350.09
2023-05-15T02:24:58.942Z,97351.00
2023-05-15T02:27:29.041Z,97352.44
2023-05-15T02:30:20.235Z,97357.03
2023-05-15T02:33:01.714Z,97352.44
2023-05-15T02:35:39.573Z,97343.16
2023-05-15T02:38:11.967Z,97350.41
2023-05-15T02:40:38.490Z,97345.69
2023-05-15T02:43:04.968Z,97344.16
2023-05-15T02:45:31.484Z,97342.50
2023-05-15T02:47:57.987Z,97330.22
2023-05-15T02:50:24.560Z,97337.91
2023-05-15T02:52:51.044Z,97336.78
2023-05-15T02:55:17.507Z,97330.53
2023-05-15T02:57:43.999Z,97336.69
2023-05-15T03:00:13.418Z,97338.19
2023-05-15T03:02:39.940Z,97330.22
2023-05-15T03:05:07.025Z,97332.22
2023-05-15T03:07:33.458Z,97336.19
2023-05-15T03:09:59.912Z,97339.09
2023-05-15T03:12:26.426Z,97338.84
2023-05-15T03:14:52.885Z,97342.22
2023-05-15T03:17:19.326Z,97345.94
2023-05-15T03:19:45.824Z,97334.59
2023-05-15T03:22:12.791Z,97340.38
2023-05-15T03:24:39.272Z,97331.53
2023-05-15T03:27:06.059Z,97330.94
2023-05-15T03:29:32.548Z,97329.00
2023-05-15T03:31:59.083Z,97329.06
2023-05-15T03:34:26.035Z,97323.94
2023-05-15T03:36:52.529Z,97325.28
2023-05-15T03:39:18.989Z,97321.94
2023-05-15T03:41:45.525Z,97324.38
2023-05-15T03:44:12.010Z,97322.78
2023-05-15T03:46:38.528Z,97324.63
2023-05-15T03:49:05.059Z,97327.03
2023-05-15T03:51:31.486Z,97326.03
2023-05-15T03:53:57.921Z,97329.16
2023-05-15T03:56:24.731Z,97324.53
2023-05-15T03:58:51.259Z,97329.06
2023-05-15T04:01:17.716Z,97321.09
2023-05-15T04:03:44.257Z,97326.47
2023-05-15T04:06:10.862Z,97318.19
2023-05-15T04:08:38.273Z,97318.53
2023-05-15T04:11:06.874Z,97319.34
2023-05-15T04:13:33.312Z,97319.34
2023-05-15T04:15:59.897Z,97321.84
2023-05-15T04:18:26.427Z,97327.75
2023-05-15T04:20:53.062Z,97329.16
2023-05-15T04:23:19.520Z,97326.09
2023-05-15T04:25:46.880Z,97321.91
2023-05-15T04:28:13.715Z,97321.56
2023-05-15T04:30:40.261Z,97321.63
2023-05-15T04:33:06.817Z,97318.13
2023-05-15T04:35:33.370Z,97322.44
2023-05-15T04:37:59.820Z,97321.44
2023-05-15T04:40:26.296Z,97321.72
2023-05-15T04:42:52.769Z,97321.19
2023-05-15T04:45:19.204Z,97316.88
2023-05-15T04:47:46.126Z,97309.44
2023-05-15T04:50:12.713Z,97322.22
2023-05-15T04:52:39.179Z,97319.72
2023-05-15T04:55:06.421Z,97326.03
2023-05-15T04:57:32.885Z,97329.34
2023-05-15T04:59:59.376Z,97321.97
2023-05-15T05:02:26.419Z,97313.44
2023-05-15T05:04:52.952Z,97318.28
2023-05-15T05:07:19.453Z,97327.63
2023-05-15T05:09:46.047Z,97333.88
2023-05-15T05:12:12.649Z,97326.47
2023-05-15T05:14:40.638Z,97325.25
2023-05-15T05:17:07.166Z,97333.19
2023-05-15T05:19:33.679Z,97336.19
2023-05-15T05:22:04.549Z,97325.84
2023-05-15T05:24:35.802Z,97328.50
2023-05-15T05:27:02.354Z,97321.81
2023-05-15T05:29:29.984Z,97334.25
2023-05-15T05:31:56.536Z,97329.84
2023-05-15T05:34:23.026Z,97335.53
2023-05-15T05:36:49.857Z,97336.19
2023-05-15T05:39:19.366Z,97339.31
2023-05-15T05:41:45.832Z,97337.53
2023-05-15T05:44:12.319Z,97346.53
2023-05-15T05:46:38.895Z,97343.53
2023-05-15T05:49:05.485Z,97345.16
2023-05-15T05:51:32.071Z,97351.25
2023-05-15T05:53:58.626Z,97341.19
2023-05-15T05:56:26.487Z,97338.53
2023-05-15T05:58:52.978Z,97343.88
2023-05-15T06:01:19.492Z,97343.41
2023-05-15T06:03:46.664Z,97340.47
2023-05-15T06:06:13.256Z,97342.78
2023-05-15T06:08:40.203Z,97343.16
2023-05-15T06:11:06.835Z,97346.19
2023-05-15T06:13:33.330Z,97342.44
2023-05-15T06:15:59.853Z,97345.38
2023-05-15T06:18:26.334Z,97337.84
2023-05-15T06:20:53.415Z,97341.41
2023-05-15T06:23:20.313Z,97337.06
2023-05-15T06:25:47.371Z,97340.25
2023-05-15T06:28:13.817Z,97338.78
2023-05-15T06:30:40.452Z,97335.97
2023-05-15T06:33:07.052Z,97334.00
2023-05-15T06:35:33.575Z,97342.19
2023-05-15T06:38:00.197Z,97337.34
2023-05-15T06:40:26.818Z,97339.06
2023-05-15T06:42:53.554Z,97334.81
2023-05-15T06:45:20.065Z,97340.22
2023-05-15T06:47:46.586Z,97338.88
2023-05-15T06:50:13.041Z,97337.75
2023-05-15T06:52:39.536Z,97339.69
2023-05-15T06:55:06.284Z,97343.50
2023-05-15T06:57:33.581Z,97337.28
2023-05-15T07:00:00.093Z,97339.13
2023-05-15T07:02:26.615Z,97344.88
2023-05-15T07:04:53.171Z,97345.22
2023-05-15T07:07:19.683Z,97346.97
2023-05-15T07:09:48.330Z,97342.81
2023-05-15T07:12:15.449Z,97341.63
2023-05-15T07:14:42.031Z,97342.22
2023-05-15T07:17:08.626Z,97334.03
2023-05-15T07:19:35.269Z,97323.97
2023-05-15T07:22:03.322Z,97331.72
2023-05-15T07:24:30.308Z,97339.09
2023-05-15T07:26:58.639Z,97339.13
2023-05-15T07:29:25.812Z,97332.75
2023-05-15T07:31:52.324Z,97339.03
2023-05-15T07:34:18.852Z,97335.72
2023-05-15T07:36:45.365Z,97336.06
2023-05-15T07:39:11.978Z,97333.38
2023-05-15T07:41:38.510Z,97332.09
2023-05-15T07:44:05.031Z,97328.78
2023-05-15T07:46:31.592Z,97326.66
2023-05-15T07:48:58.126Z,97325.50
2023-05-15T07:51:24.632Z,97330.72
2023-05-15T07:53:51.274Z,97332.06
2023-05-15T07:56:17.733Z,97330.41
2023-05-15T07:58:44.222Z,97334.53
2023-05-15T08:01:10.784Z,97331.81
2023-05-15T08:03:37.377Z,97329.94
2023-05-15T08:06:04.123Z,97328.13
2023-05-15T08:08:30.811Z,97327.84
2023-05-15T08:10:57.276Z,97329.47
2023-05-15T08:13:23.896Z,97329.91
2023-05-15T08:15:50.419Z,97328.56
2023-05-15T08:18:16.953Z,97330.56
2023-05-15T08:20:43.516Z,97336.38
2023-05-15T08:23:10.034Z,97331.09
2023-05-15T08:25:36.502Z,97321.38
2023-05-15T08:28:04.225Z,97320.06
2023-05-15T08:30:30.740Z,97314.91
2023-05-15T08:32:57.234Z,97314.50
2023-05-15T08:35:23.976Z,97309.91
2023-05-15T08:37:50.694Z,97315.88
2023-05-15T08:40:19.824Z,97322.06
2023-05-15T08:42:53.896Z,97318.81
2023-05-15T08:45:20.392Z,97323.97
2023-05-15T08:47:47.198Z,97323.97
2023-05-15T08:50:15.479Z,97323.53
2023-05-15T08:52:42.986Z,97319.38
2023-05-15T08:55:10.610Z,97304.84
2023-05-15T08:57:37.827Z,97307.81
2023-05-15T09:00:09.201Z,97310.28
2023-05-15T09:02:37.294Z,97306.94
2023-05-15T09:05:05.126Z,97307.22
2023-05-15T09:07:31.711Z,97305.59
2023-05-15T09:09:58.873Z,97305.41
2023-05-15T09:12:26.044Z,97297.22
2023-05-15T09:14:54.355Z,97299.53
2023-05-15T09:17:21.022Z,97290.72
2023-05-15T09:19:47.529Z,97294.25
2023-05-15T09:22:17.491Z,97297.88
2023-05-15T09:24:45.077Z,97296.28
2023-05-15T09:27:12.004Z,97292.81
2023-05-15T09:29:38.812Z,97296.72
2023-05-15T09:32:08.764Z,97287.59
2023-05-15T09:34:37.170Z,97287.44
2023-05-15T09:37:05.085Z,97283.25
2023-05-15T09:39:31.605Z,97287.84
2023-05-15T09:42:08.448Z,97291.25
2023-05-15T09:44:35.102Z,97293.56
2023-05-15T09:47:02.005Z,97294.00
2023-05-15T09:49:30.530Z,97278.78
2023-05-15T09:51:58.873Z,97277.00
2023-05-15T09:54:25.570Z,97277.28
2023-05-15T09:56:52.063Z,97270.56
2023-05-15T09:59:19.321Z,97271.06
2023-05-15T10:01:46.216Z,97284.03
2023-05-15T10:04:13.761Z,97268.91
2023-05-15T10:06:43.138Z,97271.22
2023-05-15T10:09:10.701Z,97260.72
2023-05-15T10:11:38.596Z,97256.50
2023-05-15T10:14:09.484Z,97247.94
2023-05-15T10:16:37.133Z,97255.63
2023-05-15T10:19:05.326Z,97253.84
2023-05-15T10:21:33.578Z,97255.63
2023-05-15T10:24:00.745Z,97249.78
2023-05-15T10:26:38.086Z,97246.00
2023-05-15T10:29:11.968Z,97242.66
2023-05-15T10:31:39.498Z,97242.88
2023-05-15T10:34:06.209Z,97235.97
2023-05-15T10:36:33.294Z,97228.94
2023-05-15T10:39:05.863Z,97237.66
2023-05-15T10:41:32.896Z,97229.38
2023-05-15T10:44:00.145Z,97221.47
2023-05-15T10:46:27.662Z,97222.06
2023-05-15T10:48:54.282Z,97227.38
2023-05-15T10:51:27.920Z,97221.69
2023-05-15T10:53:54.826Z,97221.88
2023-05-15T10:56:21.551Z,97218.41
2023-05-15T10:58:51.262Z,97211.50
2023-05-15T11:01:27.955Z,97208.56
2023-05-15T11:04:09.824Z,97201.91
2023-05-15T11:06:37.454Z,97197.97
2023-05-15T11:09:27.937Z,97201.91
2023-05-15T11:11:56.826Z,97196.47
2023-05-15T11:14:24.126Z,97195.47
2023-05-15T11:16:53.932Z,97201.75
2023-05-15T11:19:29.461Z,97194.25
2023-05-15T11:22:08.061Z,97194.59
2023-05-15T11:24:59.239Z,97188.78
2023-05-15T11:27:26.133Z,97190.16
2023-05-15T11:30:04.935Z,97195.00
2023-05-15T11:32:33.393Z,97195.00
2023-05-15T11:35:00.988Z,97193.41
2023-05-15T11:37:27.530Z,97173.69
2023-05-15T11:39:54.045Z,97177.66
2023-05-15T11:42:20.571Z,97171.09
2023-05-15T11:44:47.017Z,97174.56
2023-05-15T11:47:13.553Z,97178.19
2023-05-15T11:49:40.035Z,97173.44
2023-05-15T11:52:06.856Z,97177.78
2023-05-15T11:54:33.399Z,97178.44
2023-05-15T11:57:00.180Z,97185.66
2023-05-15T11:59:27.008Z,97204.84
2023-05-15T12:01:53.578Z,97200.78
2023-05-15T12:04:20.361Z,97200.59
2023-05-15T12:06:47.598Z,97181.66
2023-05-15T12:09:16.691Z,97176.16
2023-05-15T12:11:55.346Z,97177.00
2023-05-15T12:14:31.104Z,97172.88
2023-05-15T12:17:04.445Z,97175.97
2023-05-15T12:19:31.442Z,97167.22
2023-05-15T12:21:57.907Z,97174.78
2023-05-15T12:24:26.149Z,97184.09
2023-05-15T12:26:52.641Z,97175.06
2023-05-15T12:29:19.090Z,97183.28
2023-05-15T12:31:45.770Z,97179.31
2023-05-15T12:34:12.345Z,97192.78
2023-05-15T12:36:41.379Z,97188.78
2023-05-15T12:39:08.040Z,97185.56
2023-05-15T12:41:34.652Z,97194.34
2023-05-15T12:44:01.114Z,97209.38
2023-05-15T12:46:31.799Z,97227.13
2023-05-15T12:48:59.099Z,97240.25
2023-05-15T12:51:25.641Z,97240.00
2023-05-15T12:53:53.141Z,97239.94
2023-05-15T12:56:19.598Z,97232.94
2023-05-15T12:58:46.505Z,97225.38
2023-05-15T13:01:12.996Z,97226.44
2023-05-15T13:03:42.617Z,97228.22
2023-05-15T13:06:09.966Z,97231.56
2023-05-15T13:08:42.625Z,97229.09
2023-05-15T13:11:13.848Z,97228.25
2023-05-15T13:13:50.101Z,97221.81
2023-05-15T13:16:29.548Z,97219.22
2023-05-15T13:18:58.657Z,97210.59
2023-05-15T13:21:25.264Z,97212.44
2023-05-15T13:23:52.118Z,97203.38
2023-05-15T13:26:18.700Z,97193.91
2023-05-15T13:28:45.210Z,97188.06
2023-05-15T13:31:11.728Z,97187.50
2023-05-15T13:33:38.303Z,97190.72
2023-05-15T13:36:05.100Z,97196.13
2023-05-15T13:38:31.628Z,97200.88
2023-05-15T13:40:58.427Z,97190.00
2023-05-15T13:43:26.551Z,97200.03
2023-05-15T13:45:53.289Z,97202.25
2023-05-15T13:48:19.833Z,97196.50
2023-05-15T13:50:46.296Z,97201.91
2023-05-15T13:53:16.666Z,97203.44
2023-05-15T13:55:45.008Z,97196.72
2023-05-15T13:58:14.936Z,97194.78
2023-05-15T14:00:42.792Z,97196.97
2023-05-15T14:03:09.631Z,97185.59
2023-05-15T14:05:36.834Z,97194.34
2023-05-15T14:08:03.567Z,97188.56
2023-05-15T14:10:30.069Z,97193.81
2023-05-15T14:12:56.775Z,97192.63
2023-05-15T14:15:23.446Z,97193.22
2023-05-15T14:17:50.648Z,97191.00
2023-05-15T14:20:17.297Z,97198.44
2023-05-15T14:22:43.755Z,97197.19
2023-05-15T14:25:10.666Z,97207.50
2023-05-15T14:27:37.157Z,97203.97
2023-05-15T14:30:04.389Z,97201.97
2023-05-15T14:32:31.001Z,97193.31
2023-05-15T14:34:59.803Z,97202.56
2023-05-15T14:37:27.518Z,97201.53
2023-05-15T14:39:54.181Z,97201.31
2023-05-15T14:42:21.235Z,97203.44
2023-05-15T14:44:48.337Z,97207.28
2023-05-15T14:47:15.043Z,97201.84
2023-05-15T14:49:41.498Z,97200.41
2023-05-15T14:52:08.768Z,97193.66
2023-05-15T14:54:38.178Z,97198.03
2023-05-15T14:57:04.745Z,97201.00
2023-05-15T14:59:31.331Z,97192.25
2023-05-15T15:01:58.097Z,97198.13
2023-05-15T15:04:26.569Z,97191.41
2023-05-15T15:06:56.648Z,97186.53
2023-05-15T15:09:23.742Z,97186.34
2023-05-15T15:11:50.279Z,97183.66
2023-05-15T15:14:16.993Z,97194.84
2023-05-15T15:16:44.509Z,97200.69
2023-05-15T15:19:11.117Z,97202.16
2023-05-15T15:21:37.684Z,97201.91
2023-05-15T15:24:04.321Z,97207.97
2023-05-15T15:26:30.874Z,97212.59
2023-05-15T15:29:00.746Z,97207.25
2023-05-15T15:31:28.751Z,97206.34
2023-05-15T15:33:55.303Z,97211.03
2023-05-15T15:36:21.869Z,97210.69
2023-05-15T15:38:48.409Z,97211.63
2023-05-15T15:41:14.984Z,97212.22
2023-05-15T15:43:41.440Z,97220.50
2023-05-15T15:46:08.082Z,97222.56
2023-05-15T15:48:34.804Z,97224.38
2023-05-15T15:51:01.278Z,97222.72
2023-05-15T15:53:27.893Z,97231.13
2023-05-15T15:55:54.478Z,97234.66
2023-05-15T15:58:20.935Z,97251.94
2023-05-15T16:00:47.487Z,97241.28
2023-05-15T16:03:14.103Z,97249.91
2023-05-15T16:05:40.646Z,97240.28
2023-05-15T16:08:07.144Z,97239.69
2023-05-15T16:10:33.587Z,97227.47
2023-05-15T16:13:00.056Z,97226.94
2023-05-15T16:15:26.572Z,97231.50
2023-05-15T16:17:53.772Z,97225.59
2023-05-15T16:20:21.136Z,97220.22
2023-05-15T16:22:47.645Z,97218.19
2023-05-15T16:25:14.110Z,97229.25
2023-05-15T16:27:40.611Z,97226.66
2023-05-15T16:30:07.965Z,97231.34
2023-05-15T16:32:34.601Z,97235.50
2023-05-15T16:35:01.110Z,97235.50
2023-05-15T16:37:27.643Z,97246.03
2023-05-15T16:39:54.192Z,97240.13
2023-05-15T16:42:20.733Z,97254.31
2023-05-15T16:44:47.229Z,97258.53
2023-05-15T16:47:13.695Z,97255.41
2023-05-15T16:49:43.311Z,97258.47
2023-05-15T16:52:10.830Z,97259.91
2023-05-15T16:54:37.361Z,97271.69
2023-05-15T16:57:03.821Z,97271.84
2023-05-15T16:59:30.609Z,97276.78
2023-05-15T17:01:58.980Z,97271.25
2023-05-15T17:04:26.849Z,97273.50
2023-05-15T17:06:53.398Z,97265.59
2023-05-15T17:09:20.990Z,97263.72
2023-05-15T17:11:47.442Z,97277.00
2023-05-15T17:14:14.067Z,97285.66
2023-05-15T17:16:40.666Z,97276.41
2023-05-15T17:19:07.268Z,97288.97
2023-05-15T17:21:34.934Z,97288.56
2023-05-15T17:24:01.671Z,97295.94
2023-05-15T17:26:28.198Z,97298.63
2023-05-15T17:28:54.753Z,97305.00
2023-05-15T17:31:21.263Z,97306.69
2023-05-15T17:33:47.930Z,97307.09
2023-05-15T17:36:14.553Z,97316.56
2023-05-15T17:38:41.035Z,97313.47
2023-05-15T17:41:07.685Z,97320.59
2023-05-15T17:43:34.160Z,97317.31
2023-05-15T17:46:00.720Z,97317.72
2023-05-15T17:48:27.475Z,97327.59
2023-05-15T17:50:53.958Z,97331.25
2023-05-15T17:53:21.423Z,97329.56
2023-05-15T17:55:48.598Z,97335.13
2023-05-15T17:58:15.174Z,97343.59
2023-05-15T18:00:41.633Z,97342.41
2023-05-15T18:03:08.168Z,97341.94
2023-05-15T18:05:34.800Z,97343.59
2023-05-15T18:08:03.440Z,97343.13
2023-05-15T18:10:29.925Z,97345.31
2023-05-15T18:12:56.406Z,97348.63
2023-05-15T18:15:22.935Z,97340.59
2023-05-15T18:17:49.858Z,97342.59
2023-05-15T18:20:16.478Z,97342.97
2023-05-15T18:22:43.316Z,97347.13
2023-05-15T18:25:09.888Z,97352.88
2023-05-15T18:27:36.692Z,97347.97
2023-05-15T18:30:03.266Z,97353.75
2023-05-15T18:32:29.761Z,97371.16
2023-05-15T18:34:56.482Z,97368.75
2023-05-15T18:37:22.950Z,97380.16
2023-05-15T18:39:49.463Z,97385.25
2023-05-15T18:42:16.611Z,97383.59
2023-05-15T18:44:44.040Z,97382.81
2023-05-15T18:47:11.031Z,97391.06
2023-05-15T18:49:38.190Z,97385.69
2023-05-15T18:52:05.238Z,97389.06
2023-05-15T18:54:31.794Z,97393.34
2023-05-15T18:56:58.318Z,97383.38
2023-05-15T18:59:24.788Z,97390.72
2023-05-15T19:01:53.221Z,97388.16
2023-05-15T19:04:20.184Z,97383.97
2023-05-15T19:06:50.185Z,97383.59
2023-05-15T19:09:20.261Z,97391.19
2023-05-15T19:11:47.265Z,97390.13
2023-05-15T19:14:15.526Z,97398.38
2023-05-15T19:16:42.276Z,97397.75
2023-05-15T19:19:08.916Z,97406.69
2023-05-15T19:21:36.884Z,97404.50
2023-05-15T19:24:03.969Z,97398.66
2023-05-15T19:26:30.577Z,97398.97
2023-05-15T19:28:57.082Z,97406.34
2023-05-15T19:31:31.253Z,97401.75
2023-05-15T19:33:58.705Z,97412.81
2023-05-15T19:36:25.441Z,97409.94
2023-05-15T19:38:52.155Z,97426.72
2023-05-15T19:41:18.749Z,97425.69
2023-05-15T19:43:46.976Z,97425.22
2023-05-15T19:46:13.706Z,97424.13
2023-05-15T19:48:40.308Z,97422.94
2023-05-15T19:51:07.235Z,97424.91
2023-05-15T19:53:34.121Z,97429.59
2023-05-15T19:56:00.753Z,97427.56
2023-05-15T19:58:27.247Z,97427.38
2023-05-15T20:00:54.150Z,97430.97
2023-05-15T20:03:21.206Z,97428.41
2023-05-15T20:05:47.949Z,97432.72
2023-05-15T20:08:14.874Z,97429.13
2023-05-15T20:10:41.325Z,97426.84
2023-05-15T20:13:08.138Z,97428.97
2023-05-15T20:15:35.095Z,97434.44
2023-05-15T20:18:01.679Z,97429.22
2023-05-15T20:20:28.463Z,97431.34
2023-05-15T20:22:55.111Z,97426.28
2023-05-15T20:25:23.506Z,97426.91
2023-05-15T20:27:50.911Z,97431.97
2023-05-15T20:30:17.508Z,97417.22
2023-05-15T20:32:44.072Z,97430.41
2023-05-15T20:35:11.138Z,97429.72
2023-05-15T20:37:40.978Z,97431.16
2023-05-15T20:40:08.093Z,97428.03
2023-05-15T20:42:34.807Z,97421.34
2023-05-15T20:45:01.422Z,97420.03
2023-05-15T20:47:27.914Z,97411.63
2023-05-15T20:49:54.782Z,97424.47
2023-05-15T20:52:21.554Z,97421.13
2023-05-15T20:54:48.004Z,97419.75
2023-05-15T20:57:14.584Z,97417.28
2023-05-15T20:59:41.372Z,97417.56
2023-05-15T21:02:07.815Z,97416.00
2023-05-15T21:04:36.224Z,97422.81
2023-05-15T21:07:03.562Z,97427.41
2023-05-15T21:09:30.047Z,97420.50
2023-05-15T21:11:56.584Z,97424.94
2023-05-15T21:14:23.057Z,97419.75
2023-05-15T21:16:49.626Z,97423.38
2023-05-15T21:19:16.324Z,97415.72
2023-05-15T21:21:42.835Z,97418.50
2023-05-15T21:24:09.285Z,97417.22
2023-05-15T21:26:35.826Z,97408.19
2023-05-15T21:29:02.365Z,97404.91
2023-05-15T21:31:28.922Z,97410.00
2023-05-15T21:33:55.601Z,97409.22
2023-05-15T21:36:22.124Z,97416.72
2023-05-15T21:38:48.694Z,97413.28
2023-05-15T21:41:15.191Z,97411.22
2023-05-15T21:43:41.790Z,97399.09
2023-05-15T21:46:08.286Z,97400.94
2023-05-15T21:48:35.037Z,97410.53
2023-05-15T21:51:01.708Z,97405.66
2023-05-15T21:53:28.200Z,97407.91
2023-05-15T21:55:58.789Z,97408.50
2023-05-15T21:58:25.277Z,97420.16
2023-05-15T22:00:51.732Z,97425.09
2023-05-15T22:03:19.759Z,97417.06
2023-05-15T22:05:47.551Z,97417.59
2023-05-15T22:08:14.003Z,97413.88
2023-05-15T22:10:41.316Z,97412.56
2023-05-15T22:13:08.897Z,97423.91
2023-05-15T22:15:35.614Z,97429.47
2023-05-15T22:18:03.422Z,97433.88
2023-05-15T22:20:29.904Z,97437.38
2023-05-15T22:22:56.460Z,97437.97
2023-05-15T22:25:23.066Z,97448.34
2023-05-15T22:27:49.566Z,97451.88
2023-05-15T22:30:16.037Z,97453.13
2023-05-15T22:32:42.567Z,97451.25
2023-05-15T22:35:09.711Z,97454.69
2023-05-15T22:37:36.627Z,97459.69
2023-05-15T22:40:04.013Z,97458.41
2023-05-15T22:42:30.493Z,97461.56
2023-05-15T22:44:57.479Z,97462.53
2023-05-15T22:47:24.915Z,97461.25
2023-05-15T22:49:51.551Z,97466.22
2023-05-15T22:52:18.638Z,97460.56
2023-05-15T22:54:45.145Z,97461.25
2023-05-15T22:57:11.697Z,97463.84
2023-05-15T22:59:38.544Z,97467.97
2023-05-15T23:02:05.148Z,97468.81
2023-05-15T23:04:31.583Z,97472.44
2023-05-15T23:06:58.030Z,97472.41
2023-05-15T23:09:24.519Z,97470.47
2023-05-15T23:11:51.590Z,97468.13
2023-05-15T23:14:18.047Z,97475.56
2023-05-15T23:16:44.591Z,97472.44
2023-05-15T23:19:11.169Z,97466.81
2023-05-15T23:21:37.949Z,97469.06
2023-05-15T23:24:05.022Z,97470.06
2023-05-15T23:26:31.918Z,97470.38
2023-05-15T23:28:58.363Z,97468.69
2023-05-15T23:31:25.528Z,97470.38
2023-05-15T23:33:52.016Z,97469.69
2023-05-15T23:36:18.530Z,97478.66
2023-05-15T23:38:45.569Z,97479.66
2023-05-15T23:41:12.023Z,97480.94
2023-05-15T23:43:38.474Z,97475.91
2023-05-15T23:46:05.114Z,97472.22
2023-05-15T23:48:33.485Z,97479.88
2023-05-15T23:51:00.128Z,97467.50
2023-05-15T23:53:26.687Z,97464.03
2023-05-15T23:55:53.170Z,97467.28
2023-05-15T23:58:19.596Z,97465.56
